Time;durP1;ratioP1;P1;durP2;ratioP2;P2;SDS_P1;SDS_P2;PMS_P1;PMS_P2;Temp;Humidity;BMP_temperature;BMP_pressure;BME280_temperature;BME280_humidity;BME280_pressure;Samples;Min_cycle;Max_cycle;Signal;HPM_P1;HPM_P2
2022/07/11 00:02:12;;;;;;;6.65;2.75;;;18.60;99.90;;;;;;5043199;28;20040;-66
2022/07/11 00:04:38;;;;;;;5.90;2.60;;;18.50;99.90;;;;;;5029611;28;20384;-66
2022/07/11 00:07:04;;;;;;;5.05;2.70;;;18.30;99.90;;;;;;5032300;28;20050;-66
2022/07/11 00:09:30;;;;;;;5.72;2.78;;;18.20;99.90;;;;;;5036244;28;20611;-65
2022/07/11 00:11:56;;;;;;;7.03;3.13;;;17.90;99.90;;;;;;5033120;28;20477;-66
2022/07/11 00:14:22;;;;;;;6.60;2.85;;;17.80;99.90;;;;;;5031745;28;20029;-64
2022/07/11 00:16:49;;;;;;;5.18;2.47;;;17.80;99.90;;;;;;5036799;28;20025;-65
2022/07/11 00:19:15;;;;;;;5.32;2.80;;;17.90;99.90;;;;;;5038392;28;20025;-65
2022/07/11 00:21:43;;;;;;;6.78;3.17;;;;;;;;;;5032316;28;20064;-65
2022/07/11 00:24:10;;;;;;;8.95;3.17;;;;;;;;;;5034285;28;20052;-65
2022/07/11 00:26:36;;;;;;;9.02;2.90;;;;;;;;;;5038528;28;20727;-65
2022/07/11 00:29:03;;;;;;;5.72;2.90;;;17.30;99.90;;;;;;5038493;28;20048;-66
2022/07/11 00:31:29;;;;;;;6.30;3.00;;;;;;;;;;5035790;28;21695;-66
2022/07/11 00:33:57;;;;;;;5.85;2.95;;;;;;;;;;5039311;28;20022;-65
2022/07/11 00:36:23;;;;;;;6.90;3.00;;;;;;;;;;5035759;28;20029;-65
2022/07/11 00:38:50;;;;;;;7.70;3.13;;;;;;;;;;5036745;28;20203;-66
2022/07/11 00:41:18;;;;;;;6.55;3.00;;;;;;;;;;5039546;28;20056;-66
2022/07/11 00:43:51;;;;;;;8.18;2.92;;;;;;;;;;5038524;28;20052;-66
2022/07/11 00:46:17;;;;;;;7.50;3.30;;;;;;;;;;5042335;28;20021;-65
2022/07/11 00:48:44;;;;;;;6.47;3.05;;;;;;;;;;5035310;28;20442;-66
2022/07/11 00:51:10;;;;;;;6.63;3.22;;;;;;;;;;5044833;28;20104;-65
2022/07/11 00:53:36;;;;;;;7.45;3.13;;;;;;;;;;5040767;28;20652;-66
2022/07/11 00:56:03;;;;;;;4.50;2.83;;;;;;;;;;5030558;28;20134;-66
2022/07/11 00:58:29;;;;;;;6.45;2.83;;;;;;;;;;5033488;28;20424;-65
2022/07/11 01:00:57;;;;;;;5.32;2.88;;;17.00;99.90;;;;;;5028551;28;20048;-66
2022/07/11 01:03:24;;;;;;;7.60;3.10;;;;;;;;;;5040442;28;20081;-66
2022/07/11 01:05:49;;;;;;;4.10;2.88;;;17.00;99.90;;;;;;5034497;28;20091;-66
2022/07/11 01:08:15;;;;;;;6.95;3.10;;;17.40;99.90;;;;;;5035359;28;20107;-65
2022/07/11 01:10:40;;;;;;;5.22;3.08;;;17.40;99.90;;;;;;5055235;28;20047;-65
2022/07/11 01:13:07;;;;;;;7.53;3.20;;;17.30;99.90;;;;;;5039692;28;20037;-66
2022/07/11 01:15:35;;;;;;;6.38;2.83;;;17.20;99.90;;;;;;5033258;28;20029;-66
2022/07/11 01:18:01;;;;;;;6.22;3.20;;;17.20;99.90;;;;;;5037020;28;22328;-66
2022/07/11 01:20:27;;;;;;;6.30;2.80;;;17.10;99.90;;;;;;5033975;28;20033;-66
2022/07/11 01:22:56;;;;;;;7.03;3.13;;;17.00;99.90;;;;;;5039671;28;20373;-66
2022/07/11 01:25:31;;;;;;;5.05;2.97;;;17.00;99.90;;;;;;5040703;28;20637;-66
2022/07/11 01:28:04;;;;;;;5.05;3.20;;;17.00;99.90;;;;;;5033969;28;20017;-66
2022/07/11 01:30:32;;;;;;;4.65;2.90;;;16.90;99.90;;;;;;5037644;28;20025;-67
2022/07/11 01:32:58;;;;;;;6.07;3.10;;;16.90;99.90;;;;;;5037851;28;20575;-67
2022/07/11 01:35:26;;;;;;;5.47;3.20;;;17.10;99.90;;;;;;5032122;28;20053;-66
2022/07/11 01:37:51;;;;;;;9.80;3.50;;;16.90;99.90;;;;;;5027161;28;20519;-65
2022/07/11 01:40:17;;;;;;;5.45;3.20;;;16.90;99.90;;;;;;5033782;28;20033;-66
2022/07/11 01:42:43;;;;;;;5.13;3.20;;;16.80;99.90;;;;;;5037149;28;20049;-65
2022/07/11 01:45:10;;;;;;;5.40;3.38;;;16.70;99.90;;;;;;5036669;28;20033;-66
2022/07/11 01:47:36;;;;;;;7.60;3.42;;;16.70;99.90;;;;;;5039126;28;20012;-67
2022/07/11 01:50:02;;;;;;;6.20;3.30;;;16.90;99.90;;;;;;5037949;28;20024;-66
2022/07/11 01:52:28;;;;;;;5.97;3.30;;;16.70;99.90;;;;;;5041097;28;20028;-65
2022/07/11 01:54:55;;;;;;;10.85;4.07;;;;;;;;;;5039728;28;20028;-66
2022/07/11 01:57:22;;;;;;;7.03;4.00;;;;;;;;;;5034298;28;20399;-66
2022/07/11 01:59:47;;;;;;;7.60;3.85;;;16.90;99.90;;;;;;5031513;28;20115;-66
2022/07/11 02:02:14;;;;;;;7.10;3.67;;;;;;;;;;5037757;28;20120;-65
2022/07/11 02:04:41;;;;;;;6.65;3.65;;;;;;;;;;5036315;28;20135;-65
2022/07/11 02:07:07;;;;;;;6.53;3.63;;;16.80;99.90;;;;;;5035593;28;20512;-65
2022/07/11 02:09:33;;;;;;;6.88;3.85;;;17.30;99.90;;;;;;5037805;28;20092;-65
2022/07/11 02:11:59;;;;;;;8.20;3.83;;;17.10;99.90;;;;;;5038643;28;20151;-66
2022/07/11 02:14:24;;;;;;;6.57;3.70;;;17.10;99.90;;;;;;5036339;28;20020;-66
2022/07/11 02:16:50;;;;;;;11.48;3.88;;;17.10;99.90;;;;;;5036014;28;20025;-65
2022/07/11 02:19:15;;;;;;;10.02;3.80;;;17.00;99.90;;;;;;5033061;28;20032;-66
2022/07/11 02:21:41;;;;;;;8.32;4.00;;;17.00;99.90;;;;;;5031396;28;20025;-66
2022/07/11 02:24:07;;;;;;;10.13;3.85;;;17.10;99.90;;;;;;5036067;28;20094;-66
2022/07/11 02:26:32;;;;;;;8.77;4.10;;;17.20;99.90;;;;;;5034610;28;20017;-65
2022/07/11 02:28:58;;;;;;;12.00;4.40;;;16.50;99.90;;;;;;5032134;28;20148;-66
2022/07/11 02:31:23;;;;;;;4.75;3.30;;;16.70;99.90;;;;;;5039540;28;20036;-66
2022/07/11 02:33:49;;;;;;;8.65;3.80;;;17.30;99.90;;;;;;5038382;28;20039;-66
2022/07/11 02:36:15;;;;;;;5.97;3.80;;;16.90;99.90;;;;;;5029733;28;20028;-65
2022/07/11 02:38:42;;;;;;;10.63;3.90;;;16.90;99.90;;;;;;5031780;28;20025;-66
2022/07/11 02:41:07;;;;;;;8.77;3.78;;;16.90;99.90;;;;;;5037161;28;20021;-65
2022/07/11 02:43:33;;;;;;;10.43;4.00;;;16.60;99.90;;;;;;5040177;28;20561;-66
2022/07/11 02:45:59;;;;;;;6.95;3.22;;;17.00;99.90;;;;;;5030619;28;20028;-65
2022/07/11 02:48:24;;;;;;;8.23;3.40;;;17.00;99.90;;;;;;5029899;28;20025;-66
2022/07/11 02:50:51;;;;;;;7.93;3.05;;;17.00;99.90;;;;;;5035326;28;20014;-66
2022/07/11 02:53:17;;;;;;;9.88;3.10;;;;;;;;;;5036299;28;20084;-66
2022/07/11 02:55:45;;;;;;;5.70;3.03;;;;;;;;;;5037484;28;20029;-66
2022/07/11 02:58:11;;;;;;;8.40;3.15;;;17.20;99.90;;;;;;5036434;28;20482;-66
2022/07/11 03:00:36;;;;;;;4.70;3.03;;;17.50;99.90;;;;;;5036602;28;20040;-65
2022/07/11 03:03:03;;;;;;;6.47;3.03;;;17.00;99.90;;;;;;5038082;28;20033;-65
2022/07/11 03:05:29;;;;;;;6.05;3.10;;;16.90;99.90;;;;;;5036134;28;20017;-66
2022/07/11 03:07:55;;;;;;;7.43;3.47;;;17.50;99.90;;;;;;5029825;28;20021;-65
2022/07/11 03:10:23;;;;;;;7.80;3.83;;;17.50;99.90;;;;;;5033003;28;20020;-65
2022/07/11 03:12:49;;;;;;;9.98;3.50;;;17.30;99.90;;;;;;5033125;28;20031;-65
2022/07/11 03:15:14;;;;;;;7.95;3.40;;;17.30;99.90;;;;;;5039706;28;20283;-66
2022/07/11 03:17:41;;;;;;;5.97;3.50;;;;;;;;;;5033656;28;20024;-66
2022/07/11 03:20:07;;;;;;;10.55;3.30;;;17.20;99.90;;;;;;5039960;28;20032;-66
2022/07/11 03:22:33;;;;;;;6.35;3.35;;;17.30;99.90;;;;;;5035864;28;20117;-65
2022/07/11 03:25:00;;;;;;;7.32;3.15;;;;;;;;;;5034353;28;20104;-65
2022/07/11 03:27:26;;;;;;;6.25;3.13;;;17.30;99.90;;;;;;5039900;28;20485;-66
2022/07/11 03:29:54;;;;;;;11.93;3.17;;;;;;;;;;5033653;28;20056;-65
2022/07/11 03:32:21;;;;;;;7.43;3.33;;;;;;;;;;5037038;28;20097;-66
2022/07/11 03:37:31;;;;;;;10.38;3.15;;;17.70;99.90;;;;;;5038232;28;20603;-65
2022/07/11 03:39:57;;;;;;;7.18;2.97;;;17.50;99.90;;;;;;5030716;28;20109;-65
2022/07/11 03:42:23;;;;;;;7.30;3.25;;;17.60;99.90;;;;;;5040140;28;20492;-66
2022/07/11 03:44:48;;;;;;;5.68;2.80;;;17.60;99.90;;;;;;5033716;28;20111;-66
2022/07/11 03:47:14;;;;;;;7.07;3.00;;;17.50;99.90;;;;;;5038660;28;20032;-65
2022/07/11 03:49:39;;;;;;;5.95;2.88;;;17.40;99.90;;;;;;5029529;28;20549;-65
2022/07/11 03:52:05;;;;;;;4.25;2.63;;;17.50;99.90;;;;;;5042882;28;20349;-66
2022/07/11 03:54:30;;;;;;;5.07;2.80;;;17.90;99.90;;;;;;5032721;28;20100;-66
2022/07/11 03:56:56;;;;;;;8.73;2.80;;;17.90;99.90;;;;;;5040674;28;20026;-65
2022/07/11 03:59:22;;;;;;;5.63;2.95;;;17.40;99.90;;;;;;5037926;28;20112;-65
2022/07/11 04:01:47;;;;;;;5.53;2.72;;;17.40;99.90;;;;;;5029212;28;20009;-65
2022/07/11 04:04:13;;;;;;;7.03;2.63;;;17.40;99.90;;;;;;5035019;28;20064;-66
2022/07/11 04:06:42;;;;;;;7.55;2.85;;;;;;;;;;5036274;28;20043;-66
2022/07/11 04:09:08;;;;;;;4.63;2.25;;;17.40;99.90;;;;;;5037652;28;20025;-65
2022/07/11 04:11:35;;;;;;;7.20;2.50;;;;;;;;;;5038063;28;20693;-66
2022/07/11 04:14:01;;;;;;;5.15;2.30;;;;;;;;;;5038321;28;20024;-66
2022/07/11 04:16:27;;;;;;;6.70;2.58;;;16.90;99.90;;;;;;5035518;28;20131;-66
2022/07/11 04:18:53;;;;;;;3.88;2.28;;;17.20;99.90;;;;;;5029926;28;20045;-65
2022/07/11 04:21:18;;;;;;;7.85;2.17;;;17.20;99.90;;;;;;5041747;28;20037;-66
2022/07/11 04:23:44;;;;;;;5.38;2.50;;;17.50;99.90;;;;;;5041569;28;20135;-65
2022/07/11 04:26:09;;;;;;;6.78;1.90;;;17.30;99.90;;;;;;5042390;28;20720;-66
2022/07/11 04:28:35;;;;;;;4.50;2.13;;;17.40;99.90;;;;;;5059425;28;20022;-66
2022/07/11 04:31:01;;;;;;;5.28;2.08;;;17.40;99.90;;;;;;5039029;28;20110;-66
2022/07/11 04:33:28;;;;;;;3.50;1.98;;;;;;;;;;5037279;28;20048;-66
2022/07/11 04:35:54;;;;;;;5.93;2.38;;;17.80;99.90;;;;;;5039795;28;20100;-65
2022/07/11 04:38:21;;;;;;;4.75;2.40;;;17.80;99.90;;;;;;5039881;28;20045;-66
2022/07/11 04:40:48;;;;;;;3.42;2.05;;;17.80;99.90;;;;;;5037133;28;20025;-66
2022/07/11 04:43:14;;;;;;;4.47;2.00;;;17.60;99.90;;;;;;5043496;28;20111;-66
2022/07/11 04:45:39;;;;;;;4.15;2.10;;;17.60;99.90;;;;;;5037947;28;20885;-65
2022/07/11 04:48:05;;;;;;;6.75;2.40;;;17.60;99.90;;;;;;5035164;28;20020;-66
2022/07/11 04:50:31;;;;;;;5.25;1.80;;;17.40;99.90;;;;;;5033061;28;20033;-66
2022/07/11 04:52:56;;;;;;;5.40;1.85;;;17.50;99.90;;;;;;5034331;28;20254;-66
2022/07/11 04:55:22;;;;;;;5.25;2.00;;;17.40;99.90;;;;;;5045389;28;20144;-65
2022/07/11 04:57:48;;;;;;;4.15;1.60;;;17.50;99.90;;;;;;5030298;28;20037;-65
2022/07/11 05:00:14;;;;;;;3.40;1.30;;;17.40;99.90;;;;;;5032288;28;20097;-66
2022/07/11 05:02:40;;;;;;;4.28;1.30;;;17.40;99.90;;;;;;5036073;28;20041;-65
2022/07/11 05:05:06;;;;;;;3.22;1.48;;;17.40;99.90;;;;;;5032725;28;20018;-65
2022/07/11 05:07:32;;;;;;;3.10;1.60;;;17.40;99.90;;;;;;5036483;28;20024;-65
2022/07/11 05:09:58;;;;;;;3.45;1.67;;;;;;;;;;5033731;28;20683;-66
2022/07/11 05:12:23;;;;;;;3.38;1.42;;;17.50;99.90;;;;;;5032464;28;20473;-65
2022/07/11 05:14:49;;;;;;;5.13;1.33;;;;;;;;;;5037870;28;20110;-65
2022/07/11 05:17:16;;;;;;;4.82;2.08;;;;;;;;;;5040571;28;20453;-65
2022/07/11 05:19:42;;;;;;;2.90;1.30;;;17.10;99.90;;;;;;5037714;28;20053;-66
2022/07/11 05:22:07;;;;;;;4.38;1.67;;;17.30;99.90;;;;;;5033185;28;20095;-66
2022/07/11 05:24:33;;;;;;;4.78;1.60;;;17.20;99.90;;;;;;5035219;28;20114;-66
2022/07/11 05:26:58;;;;;;;6.65;1.70;;;17.20;99.90;;;;;;5032633;28;20028;-65
2022/07/11 05:29:24;;;;;;;4.18;1.30;;;17.30;99.90;;;;;;5042795;28;20081;-66
2022/07/11 05:31:50;;;;;;;5.35;1.52;;;17.20;99.90;;;;;;5039045;28;20052;-65
2022/07/11 05:34:19;;;;;;;5.47;1.40;;;17.50;99.90;;;;;;5035955;28;20029;-64
2022/07/11 05:36:46;;;;;;;3.53;1.50;;;17.60;99.90;;;;;;5050502;28;20119;-66
2022/07/11 05:39:11;;;;;;;4.05;1.60;;;17.40;99.90;;;;;;5036804;28;20057;-66
2022/07/11 05:41:37;;;;;;;3.83;1.50;;;17.40;99.90;;;;;;5036653;28;20090;-65
2022/07/11 05:44:02;;;;;;;5.45;1.60;;;17.40;99.90;;;;;;5046516;28;20017;-65
2022/07/11 05:46:28;;;;;;;4.10;1.40;;;17.40;99.90;;;;;;5037009;28;20028;-64
2022/07/11 05:48:54;;;;;;;2.63;1.00;;;17.60;99.90;;;;;;5038310;28;20052;-64
2022/07/11 05:51:19;;;;;;;4.60;1.65;;;17.60;99.90;;;;;;5056598;28;20028;-65
2022/07/11 05:53:45;;;;;;;5.13;1.77;;;17.60;99.90;;;;;;5037483;28;20118;-66
2022/07/11 05:56:10;;;;;;;3.97;1.60;;;17.60;99.90;;;;;;5034476;28;20112;-65
2022/07/11 05:58:36;;;;;;;2.92;1.80;;;17.70;99.90;;;;;;5029265;28;20033;-66
2022/07/11 06:01:02;;;;;;;2.30;1.73;;;17.50;99.90;;;;;;5039780;28;20020;-66
2022/07/11 06:03:27;;;;;;;5.80;1.80;;;17.60;99.90;;;;;;5030165;28;20100;-65
2022/07/11 06:05:53;;;;;;;3.35;1.73;;;17.60;99.90;;;;;;5032094;28;20029;-66
2022/07/11 06:11:03;;;;;;;3.03;1.83;;;17.50;99.90;;;;;;5044168;28;20070;-66
2022/07/11 06:13:29;;;;;;;4.65;1.80;;;17.50;99.90;;;;;;5037093;28;20032;-65
2022/07/11 06:15:55;;;;;;;3.50;1.75;;;17.60;99.90;;;;;;5039027;28;20636;-65
2022/07/11 06:18:21;;;;;;;3.20;1.65;;;17.40;99.90;;;;;;5034966;28;20029;-64
2022/07/11 06:20:47;;;;;;;2.28;1.60;;;17.40;99.90;;;;;;5034242;28;20072;-65
2022/07/11 06:23:12;;;;;;;3.60;1.80;;;17.60;99.90;;;;;;5037057;28;20021;-65
2022/07/11 06:25:38;;;;;;;5.05;1.63;;;17.50;99.90;;;;;;5035795;28;20495;-65
2022/07/11 06:28:04;;;;;;;3.85;1.70;;;17.50;99.90;;;;;;5036725;28;20024;-63
2022/07/11 06:30:31;;;;;;;55.92;39.85;;;17.40;99.90;;;;;;5029303;28;20116;-66
2022/07/11 06:32:59;;;;;;;4.18;1.90;;;17.40;99.90;;;;;;5039238;28;20445;-67
2022/07/11 06:35:25;;;;;;;7.30;2.10;;;17.50;99.90;;;;;;5033152;28;20056;-65
2022/07/11 06:37:51;;;;;;;6.82;1.67;;;17.50;99.90;;;;;;5039812;28;20021;-66
2022/07/11 06:40:17;;;;;;;3.13;1.80;;;17.60;99.90;;;;;;5048639;28;20113;-66
2022/07/11 06:42:43;;;;;;;5.95;1.63;;;17.50;99.90;;;;;;5048084;28;20020;-66
2022/07/11 06:45:09;;;;;;;6.25;1.85;;;17.40;99.90;;;;;;5043807;28;20012;-65
2022/07/11 06:47:35;;;;;;;8.68;1.92;;;17.30;99.90;;;;;;5040404;28;20079;-66
2022/07/11 06:50:01;;;;;;;3.90;1.73;;;17.20;99.90;;;;;;5045473;28;20032;-66
2022/07/11 06:52:26;;;;;;;5.65;1.73;;;17.30;99.90;;;;;;5039228;28;20128;-66
2022/07/11 06:54:52;;;;;;;3.42;1.50;;;17.30;99.90;;;;;;5045057;28;20686;-65
2022/07/11 06:57:17;;;;;;;5.20;1.70;;;17.40;99.90;;;;;;5042990;28;20111;-65
2022/07/11 06:59:43;;;;;;;3.15;1.45;;;17.40;99.90;;;;;;5044584;28;20044;-65
2022/07/11 07:02:08;;;;;;;5.15;1.52;;;17.50;99.90;;;;;;5035237;28;20035;-65
2022/07/11 07:04:34;;;;;;;8.43;1.98;;;17.60;99.90;;;;;;5046003;28;20028;-64
2022/07/11 07:07:01;;;;;;;5.05;1.75;;;17.60;99.90;;;;;;5047689;28;20060;-65
2022/07/11 07:09:27;;;;;;;4.25;1.75;;;17.70;99.90;;;;;;5038391;28;20073;-66
2022/07/11 07:11:54;;;;;;;3.40;1.75;;;17.70;99.90;;;;;;5044038;28;20392;-65
2022/07/11 07:14:20;;;;;;;4.63;1.90;;;17.80;99.90;;;;;;5037804;28;20032;-66
2022/07/11 07:16:45;;;;;;;4.40;1.63;;;17.80;99.90;;;;;;5040543;28;20661;-65
2022/07/11 07:19:11;;;;;;;3.55;1.70;;;17.70;99.90;;;;;;5034672;28;20033;-65
2022/07/11 07:21:37;;;;;;;3.97;1.70;;;18.00;99.90;;;;;;5042189;28;20480;-65
2022/07/11 07:24:02;;;;;;;4.18;1.73;;;17.90;99.90;;;;;;5046458;28;20057;-65
2022/07/11 07:26:28;;;;;;;3.22;1.77;;;18.20;99.90;;;;;;5040968;28;20029;-67
2022/07/11 07:28:53;;;;;;;2.55;1.50;;;18.30;99.90;;;;;;5046614;28;20048;-67
2022/07/11 07:31:20;;;;;;;2.70;1.45;;;;;;;;;;5043590;28;20114;-67
2022/07/11 07:33:46;;;;;;;21.17;16.58;;;18.30;99.90;;;;;;5029955;28;20107;-63
2022/07/11 07:36:12;;;;;;;8.15;2.05;;;18.40;99.90;;;;;;5028925;28;20032;-66
2022/07/11 07:38:39;;;;;;;8.38;2.45;;;18.50;99.90;;;;;;5038128;28;20037;-66
2022/07/11 07:41:04;;;;;;;2.85;1.60;;;18.60;99.90;;;;;;5048198;28;20028;-67
2022/07/11 07:43:30;;;;;;;3.30;2.63;;;18.50;99.90;;;;;;5047196;28;20033;-66
2022/07/11 07:45:55;;;;;;;3.80;1.45;;;18.50;99.90;;;;;;5044734;28;20257;-66
2022/07/11 07:48:21;;;;;;;2.85;1.08;;;19.00;99.90;;;;;;5032068;28;20024;-66
2022/07/11 07:50:46;;;;;;;1.80;1.30;;;19.10;99.90;;;;;;5045308;28;20016;-65
2022/07/11 07:53:12;;;;;;;2.97;1.10;;;19.00;99.90;;;;;;5045355;28;20047;-66
2022/07/11 07:55:38;;;;;;;1.60;0.77;;;18.80;99.90;;;;;;5049598;28;20024;-66
2022/07/11 07:58:03;;;;;;;4.72;1.20;;;18.80;99.90;;;;;;5045861;28;20017;-66
2022/07/11 08:03:13;;;;;;;3.50;0.93;;;18.70;99.90;;;;;;5046018;28;20039;-66
2022/07/11 08:05:38;;;;;;;3.88;1.00;;;19.00;99.90;;;;;;5046061;28;20028;-65
2022/07/11 08:08:04;;;;;;;2.72;0.77;;;19.00;99.90;;;;;;5033413;28;20113;-66
2022/07/11 08:10:29;;;;;;;2.88;0.88;;;18.90;99.90;;;;;;5038382;28;20010;-65
2022/07/11 08:12:55;;;;;;;1.63;0.80;;;19.00;99.90;;;;;;5037127;28;20033;-65
2022/07/11 08:15:21;;;;;;;1.88;0.95;;;19.00;99.90;;;;;;5043326;28;20028;-66
2022/07/11 08:17:46;;;;;;;1.23;0.70;;;19.10;99.90;;;;;;5036990;28;20488;-66
2022/07/11 08:20:12;;;;;;;0.70;0.70;;;19.00;99.90;;;;;;5045027;28;20028;-66
2022/07/11 08:22:38;;;;;;;3.28;0.80;;;19.20;99.90;;;;;;5043298;28;20028;-66
2022/07/11 08:25:04;;;;;;;2.33;0.88;;;19.30;99.90;;;;;;5049911;28;20149;-66
2022/07/11 08:27:29;;;;;;;0.93;0.63;;;19.30;99.90;;;;;;5053638;28;20020;-67
2022/07/11 08:29:55;;;;;;;3.90;0.88;;;19.30;99.90;;;;;;5052168;28;20851;-66
2022/07/11 08:32:20;;;;;;;1.98;0.85;;;19.40;99.90;;;;;;5045299;28;20048;-66
2022/07/11 08:34:46;;;;;;;1.08;0.50;;;19.20;99.90;;;;;;5040582;28;20029;-65
2022/07/11 08:37:12;;;;;;;1.63;0.60;;;19.10;99.90;;;;;;5062821;28;20111;-66
2022/07/11 08:39:37;;;;;;;0.43;0.40;;;19.30;99.90;;;;;;5045383;28;20033;-66
2022/07/11 08:42:03;;;;;;;1.00;0.70;;;19.30;99.90;;;;;;5039133;28;20070;-66
2022/07/11 08:44:29;;;;;;;1.33;0.43;;;19.50;99.90;;;;;;5037661;28;20028;-66
2022/07/11 08:46:57;;;;;;;2.35;0.50;;;19.60;99.90;;;;;;5041301;28;20032;-66
2022/07/11 08:49:23;;;;;;;1.60;0.70;;;19.70;99.90;;;;;;5040927;28;20166;-66
2022/07/11 08:51:49;;;;;;;1.05;0.60;;;19.60;99.90;;;;;;5034346;28;20816;-66
2022/07/11 08:54:14;;;;;;;1.10;0.40;;;19.70;99.90;;;;;;5038457;28;20565;-66
2022/07/11 08:56:45;;;;;;;1.38;0.50;;;19.70;99.90;;;;;;5052005;28;20111;-66
2022/07/11 08:59:14;;;;;;;1.73;0.35;;;19.60;99.90;;;;;;5045885;28;20052;-66
2022/07/11 09:01:45;;;;;;;1.13;0.60;;;19.30;99.90;;;;;;5042785;28;20071;-66
2022/07/11 09:04:13;;;;;;;1.08;0.50;;;19.30;99.90;;;;;;5044525;28;20056;-66
2022/07/11 09:06:39;;;;;;;0.60;0.40;;;19.20;99.90;;;;;;5034935;28;20535;-65
2022/07/11 09:09:05;;;;;;;2.33;0.60;;;19.50;99.90;;;;;;5051365;28;20025;-66
2022/07/11 09:11:50;;;;;;;3.10;0.50;;;19.70;99.90;;;;;;5039136;28;20039;-67
2022/07/11 09:14:27;;;;;;;0.43;0.43;;;19.90;99.90;;;;;;5037523;28;20648;-67
2022/07/11 09:16:57;;;;;;;11.63;8.85;;;20.20;99.90;;;;;;5036939;28;20017;-66
2022/07/11 09:19:30;;;;;;;1.27;0.52;;;20.10;99.90;;;;;;5045833;28;20028;-65
2022/07/11 09:25:29;;;;;;;0.70;0.50;;;20.00;99.90;;;;;;5041078;28;20340;-65
2022/07/11 09:28:03;;;;;;;2.55;0.70;;;20.10;99.90;;;;;;5062412;28;20481;-66
2022/07/11 09:30:31;;;;;;;0.70;0.70;;;20.30;99.90;;;;;;5040940;28;20589;-66
2022/07/11 09:32:58;;;;;;;17.00;12.60;;;20.20;99.90;;;;;;5049137;28;20033;-62
2022/07/11 09:35:25;;;;;;;7.10;5.78;;;20.10;99.90;;;;;;5038557;28;20033;-61
2022/07/11 09:37:51;;;;;;;0.60;0.60;;;20.00;99.90;;;;;;5045195;28;20030;-61
2022/07/11 09:40:17;;;;;;;2.78;0.47;;;19.80;99.90;;;;;;5047307;28;20025;-61
2022/07/11 09:42:54;;;;;;;2.88;0.52;;;19.90;99.90;;;;;;5048164;28;20036;-61
2022/07/11 09:45:24;;;;;;;2.65;0.45;;;20.10;99.90;;;;;;5044205;28;20489;-61
2022/07/11 09:47:53;;;;;;;1.55;0.35;;;19.80;99.90;;;;;;5037452;28;20447;-61
2022/07/11 09:50:19;;;;;;;0.30;0.30;;;19.90;99.90;;;;;;5040262;28;20033;-61
2022/07/11 09:53:17;;;;;;;0.70;0.30;;;20.00;99.90;;;;;;5052313;28;20036;-61
2022/07/11 09:55:45;;;;;;;1.15;0.50;;;20.10;99.90;;;;;;4996585;28;20044;-61
2022/07/11 09:58:13;;;;;;;1.63;0.30;;;20.10;99.90;;;;;;5038631;28;20110;-61
2022/07/11 10:00:41;;;;;;;2.92;0.40;;;20.10;99.90;;;;;;5039209;28;20107;-61
2022/07/11 10:03:09;;;;;;;1.05;0.28;;;20.00;99.90;;;;;;5042158;28;20025;-61
2022/07/11 10:05:35;;;;;;;0.30;0.20;;;20.10;99.90;;;;;;5036406;28;20029;-61
2022/07/11 10:08:01;;;;;;;0.20;0.20;;;20.00;99.90;;;;;;5034050;28;20033;-60
2022/07/11 10:10:29;;;;;;;0.30;0.30;;;19.90;99.90;;;;;;5036302;28;21027;-61
2022/07/11 10:12:56;;;;;;;0.30;0.30;;;19.80;99.90;;;;;;5042393;28;20468;-61
2022/07/11 10:15:34;;;;;;;0.55;0.30;;;19.90;99.90;;;;;;5044379;28;20049;-61
2022/07/11 10:18:03;;;;;;;0.45;0.20;;;19.80;99.90;;;;;;5040677;28;20574;-61
2022/07/11 10:20:44;;;;;;;2.17;0.30;;;19.80;99.90;;;;;;5049129;28;20032;-61
2022/07/11 10:23:57;;;;;;;0.28;0.20;;;19.80;99.90;;;;;;5044426;28;20036;-61
2022/07/11 10:26:45;;;;;;;0.52;0.30;;;19.90;99.90;;;;;;4969700;28;20105;-61
2022/07/11 10:29:17;;;;;;;0.65;0.30;;;20.10;99.90;;;;;;4965915;28;20030;-61
2022/07/11 10:31:46;;;;;;;1.35;0.30;;;20.10;99.90;;;;;;5023442;28;20178;-61
2022/07/11 10:34:18;;;;;;;2.05;0.43;;;20.00;99.90;;;;;;5039338;28;20159;-61
2022/07/11 10:36:44;;;;;;;0.77;0.30;;;19.90;99.90;;;;;;5043065;28;20437;-61
2022/07/11 10:39:29;;;;;;;0.35;0.35;;;20.00;99.90;;;;;;5040465;28;20122;-61
2022/07/11 10:41:57;;;;;;;0.43;0.40;;;19.70;99.90;;;;;;5049236;28;20478;-61
2022/07/11 10:44:23;;;;;;;0.30;0.30;;;19.60;99.90;;;;;;5050472;28;20805;-61
2022/07/11 10:46:49;;;;;;;0.32;0.32;;;20.00;99.90;;;;;;5046216;28;20581;-61
2022/07/11 10:49:24;;;;;;;0.40;0.40;;;20.10;99.90;;;;;;5038633;28;20090;-61
2022/07/11 10:52:04;;;;;;;1.27;0.40;;;20.30;99.90;;;;;;5059497;28;20037;-61
2022/07/11 10:54:41;;;;;;;0.47;0.30;;;20.30;99.90;;;;;;5043951;28;20064;-61
2022/07/11 10:57:22;;;;;;;0.85;0.80;;;20.30;99.90;;;;;;5039538;28;20143;-60
2022/07/11 11:00:03;;;;;;;2.42;1.55;;;20.40;99.90;;;;;;5047227;28;20029;-61
2022/07/11 11:02:31;;;;;;;0.45;0.40;;;20.60;99.90;;;;;;5031625;28;20036;-61
2022/07/11 11:04:58;;;;;;;1.05;0.30;;;20.40;99.90;;;;;;5036278;28;20214;-61
2022/07/11 11:07:42;;;;;;;0.90;0.40;;;20.30;99.90;;;;;;5037152;28;20025;-61
2022/07/11 11:10:29;;;;;;;2.65;0.75;;;20.20;99.90;;;;;;5039995;28;20032;-61
2022/07/11 11:13:05;;;;;;;3.33;0.50;;;20.10;99.90;;;;;;5045270;28;20116;-61
2022/07/11 11:15:53;;;;;;;2.08;0.52;;;20.20;99.90;;;;;;5043484;28;20636;-61
2022/07/11 11:18:25;;;;;;;2.05;0.32;;;20.30;99.90;;;;;;5039143;28;20054;-61
2022/07/11 11:20:59;;;;;;;1.05;0.50;;;20.20;99.90;;;;;;5040563;28;20039;-61
2022/07/11 11:23:36;;;;;;;0.50;0.30;;;20.10;99.90;;;;;;5044529;28;20025;-61
2022/07/11 11:26:09;;;;;;;0.93;0.70;;;20.00;99.90;;;;;;5048939;28;20120;-61
2022/07/11 11:28:37;;;;;;;2.65;0.80;;;19.90;99.90;;;;;;5050338;28;20046;-60
2022/07/11 11:31:05;;;;;;;1.42;0.70;;;20.00;99.90;;;;;;5046772;28;20551;-61
2022/07/11 11:33:36;;;;;;;1.05;0.60;;;20.10;99.90;;;;;;5044086;28;20072;-61
2022/07/11 11:36:06;;;;;;;1.27;0.68;;;20.10;99.90;;;;;;5039683;28;20844;-61
2022/07/11 11:38:38;;;;;;;2.38;0.60;;;20.20;99.90;;;;;;5040860;28;20128;-60
2022/07/11 11:41:07;;;;;;;1.40;0.50;;;20.20;99.90;;;;;;5048044;28;20082;-61
2022/07/11 11:43:34;;;;;;;1.00;0.50;;;20.10;99.90;;;;;;5044121;28;20926;-61
2022/07/11 11:46:00;;;;;;;1.38;0.55;;;20.20;99.90;;;;;;5048737;28;20431;-61
2022/07/11 11:48:30;;;;;;;1.02;0.85;;;20.20;99.90;;;;;;5040042;28;20428;-61
2022/07/11 11:51:05;;;;;;;1.08;0.85;;;20.40;99.90;;;;;;5043642;28;20025;-61
2022/07/11 11:53:46;;;;;;;0.70;0.50;;;20.40;99.90;;;;;;5046082;28;20043;-61
2022/07/11 11:56:23;;;;;;;0.88;0.60;;;20.40;99.90;;;;;;5044291;28;20474;-61
2022/07/11 11:58:51;;;;;;;1.05;0.40;;;20.20;99.90;;;;;;5057962;28;20426;-61
2022/07/11 12:01:41;;;;;;;0.65;0.40;;;20.30;99.90;;;;;;5041676;28;20029;-61
2022/07/11 12:04:10;;;;;;;0.70;0.50;;;20.20;99.90;;;;;;5035285;28;20033;-61
2022/07/11 12:06:36;;;;;;;1.75;0.60;;;20.10;99.90;;;;;;5034901;28;20295;-61
2022/07/11 12:09:18;;;;;;;0.93;0.57;;;20.20;99.90;;;;;;5047049;28;20025;-61
2022/07/11 12:11:46;;;;;;;1.33;0.70;;;20.30;99.90;;;;;;5042873;28;20363;-61
2022/07/11 12:14:14;;;;;;;0.40;0.40;;;20.10;99.90;;;;;;5048104;28;20036;-61
2022/07/11 12:16:48;;;;;;;2.13;0.43;;;20.30;99.90;;;;;;5040571;28;20115;-61
2022/07/11 12:19:16;;;;;;;0.47;0.45;;;20.30;99.90;;;;;;5045545;28;20029;-61
2022/07/11 12:21:44;;;;;;;2.40;0.60;;;20.40;99.90;;;;;;5041806;28;20103;-60
2022/07/11 12:24:18;;;;;;;0.40;0.40;;;20.30;99.90;;;;;;5044602;28;20020;-60
2022/07/11 12:26:44;;;;;;;46.83;38.92;;;20.50;99.90;;;;;;5041416;28;20480;-60
2022/07/11 12:29:12;;;;;;;2.53;0.90;;;20.70;99.90;;;;;;5047095;28;20025;-61
2022/07/11 12:31:46;;;;;;;0.57;0.50;;;20.70;99.90;;;;;;5042119;28;20021;-61
2022/07/11 12:34:12;;;;;;;1.92;0.70;;;20.50;99.90;;;;;;5042661;28;20040;-61
2022/07/11 12:36:37;;;;;;;0.90;0.63;;;20.70;99.90;;;;;;5047603;28;20029;-61
2022/07/11 12:39:04;;;;;;;0.82;0.55;;;20.90;99.90;;;;;;5049853;28;20017;-61
2022/07/11 12:41:33;;;;;;;0.73;0.60;;;21.00;99.90;;;;;;5047579;28;20111;-61
2022/07/11 12:46:43;;;;;;;2.13;0.52;;;21.30;99.90;;;;;;5044402;28;20101;-61
2022/07/11 12:49:10;;;;;;;1.65;0.80;;;21.40;99.90;;;;;;5046370;28;20443;-61
2022/07/11 12:51:41;;;;;;;1.65;1.00;;;21.40;99.90;;;;;;5051844;28;20055;-61
2022/07/11 12:54:08;;;;;;;5.45;1.60;;;21.30;99.90;;;;;;5047730;28;20701;-61
2022/07/11 12:56:35;;;;;;;3.75;1.00;;;21.30;99.90;;;;;;5040505;28;20392;-61
2022/07/11 12:59:02;;;;;;;7.38;1.05;;;21.40;99.90;;;;;;5049459;28;20539;-61
2022/07/11 13:01:32;;;;;;;1.25;0.90;;;21.60;99.90;;;;;;5043912;28;20493;-61
2022/07/11 13:03:58;;;;;;;2.25;0.90;;;21.70;99.90;;;;;;5042058;28;20040;-61
2022/07/11 13:09:09;;;;;;;1.42;0.82;;;21.60;99.90;;;;;;5044357;28;20568;-61
2022/07/11 13:11:35;;;;;;;1.70;0.80;;;21.50;99.90;;;;;;5043664;28;20516;-61
2022/07/11 13:14:01;;;;;;;0.88;0.77;;;;;;;;;;5049141;28;20031;-61
2022/07/11 13:16:27;;;;;;;1.40;1.00;;;21.10;99.90;;;;;;5042689;28;20518;-61
2022/07/11 13:18:52;;;;;;;1.38;0.85;;;21.10;99.90;;;;;;5044022;28;20735;-61